createdAt,value
2022-09-27T00:00:31.080Z,100.00
2022-09-27T00:02:57.920Z,100.00
2022-09-27T00:05:24.539Z,100.00
2022-09-27T00:07:51.040Z,100.00
2022-09-27T00:10:17.519Z,100.00
2022-09-27T00:12:43.957Z,100.00
2022-09-27T00:15:10.634Z,100.00
2022-09-27T00:17:38.638Z,100.00
2022-09-27T00:20:06.197Z,100.00
2022-09-27T00:22:32.973Z,100.00
2022-09-27T00:24:59.463Z,100.00
2022-09-27T00:27:26.756Z,100.00
2022-09-27T00:29:53.719Z,100.00
2022-09-27T00:32:20.484Z,100.00
2022-09-27T00:34:47.276Z,100.00
2022-09-27T00:37:13.738Z,100.00
2022-09-27T00:39:40.241Z,100.00
2022-09-27T00:42:09.605Z,100.00
2022-09-27T00:44:39.656Z,100.00
2022-09-27T00:47:08.989Z,100.00
2022-09-27T00:49:40.280Z,100.00
2022-09-27T00:52:25.484Z,100.00
2022-09-27T00:54:55.396Z,100.00
2022-09-27T00:57:23.344Z,100.00
2022-09-27T00:59:57.771Z,100.00
2022-09-27T01:02:24.329Z,100.00
2022-09-27T01:04:51.153Z,100.00
2022-09-27T01:07:17.598Z,100.00
2022-09-27T01:09:44.143Z,100.00
2022-09-27T01:12:24.825Z,100.00
2022-09-27T01:15:13.927Z,100.00
2022-09-27T01:17:46.400Z,100.00
2022-09-27T01:20:22.024Z,100.00
2022-09-27T01:22:51.474Z,100.00
2022-09-27T01:25:23.802Z,100.00
2022-09-27T01:27:56.072Z,100.00
2022-09-27T01:30:26.991Z,100.00
2022-09-27T01:33:08.450Z,100.00
2022-09-27T01:35:50.162Z,100.00
2022-09-27T01:38:22.356Z,100.00
2022-09-27T01:40:51.997Z,100.00
2022-09-27T01:43:22.170Z,100.00
2022-09-27T01:45:52.080Z,100.00
2022-09-27T01:48:21.612Z,100.00
2022-09-27T01:50:52.050Z,100.00
2022-09-27T01:53:20.795Z,100.00
2022-09-27T01:55:49.572Z,100.00
2022-09-27T01:58:34.374Z,100.00
2022-09-27T02:01:01.052Z,100.00
2022-09-27T02:03:33.088Z,100.00
2022-09-27T02:06:02.275Z,100.00
2022-09-27T02:08:28.762Z,100.00
2022-09-27T02:10:58.092Z,100.00
2022-09-27T02:13:27.800Z,100.00
2022-09-27T02:16:09.946Z,100.00
2022-09-27T02:18:46.862Z,100.00
2022-09-27T02:21:15.140Z,100.00
2022-09-27T02:23:51.117Z,100.00
2022-09-27T02:26:22.373Z,100.00
2022-09-27T02:29:01.274Z,100.00
2022-09-27T02:31:27.916Z,100.00
2022-09-27T02:33:58.444Z,100.00
2022-09-27T02:36:25.069Z,100.00
2022-09-27T02:38:51.638Z,100.00
2022-09-27T02:41:19.738Z,100.00
2022-09-27T02:43:48.524Z,100.00
2022-09-27T02:46:32.782Z,100.00
2022-09-27T02:49:20.458Z,100.00
2022-09-27T02:51:53.606Z,100.00
2022-09-27T02:54:38.571Z,100.00
2022-09-27T02:57:13.957Z,100.00
2022-09-27T02:59:43.459Z,100.00
2022-09-27T03:02:14.189Z,100.00
2022-09-27T03:04:44.668Z,100.00
2022-09-27T03:07:12.756Z,100.00
2022-09-27T03:09:48.013Z,100.00
2022-09-27T03:12:15.221Z,100.00
2022-09-27T03:14:41.681Z,100.00
2022-09-27T03:17:08.179Z,100.00
2022-09-27T03:19:34.720Z,100.00
2022-09-27T03:22:01.232Z,100.00
2022-09-27T03:24:27.703Z,100.00
2022-09-27T03:26:54.154Z,100.00
2022-09-27T03:29:20.631Z,100.00
2022-09-27T03:31:47.206Z,100.00
2022-09-27T03:34:13.797Z,100.00
2022-09-27T03:36:40.257Z,100.00
2022-09-27T03:39:06.768Z,100.00
2022-09-27T03:41:34.277Z,100.00
2022-09-27T03:44:00.947Z,100.00
2022-09-27T03:46:27.494Z,100.00
2022-09-27T03:48:54.086Z,100.00
2022-09-27T03:51:20.543Z,100.00
2022-09-27T03:53:47.049Z,100.00
2022-09-27T03:56:13.888Z,100.00
2022-09-27T03:58:40.373Z,100.00
2022-09-27T04:01:07.936Z,100.00
2022-09-27T04:03:36.132Z,100.00
2022-09-27T04:06:03.122Z,100.00
2022-09-27T04:08:30.231Z,100.00
2022-09-27T04:10:56.930Z,100.00
2022-09-27T04:13:24.218Z,100.00
2022-09-27T04:15:52.407Z,100.00
2022-09-27T04:18:19.194Z,100.00
2022-09-27T04:20:45.801Z,100.00
2022-09-27T04:23:12.341Z,100.00
2022-09-27T04:25:39.901Z,100.00
2022-09-27T04:28:07.871Z,100.00
2022-09-27T04:30:34.426Z,100.00
2022-09-27T04:33:00.987Z,100.00
2022-09-27T04:35:51.615Z,100.00
2022-09-27T04:38:20.533Z,100.00
2022-09-27T04:40:49.212Z,100.00
2022-09-27T04:43:15.756Z,100.00
2022-09-27T04:45:43.440Z,100.00
2022-09-27T04:48:09.956Z,100.00
2022-09-27T04:50:36.713Z,100.00
2022-09-27T04:53:03.400Z,100.00
2022-09-27T04:55:29.872Z,100.00
2022-09-27T04:57:56.352Z,100.00
2022-09-27T05:00:23.110Z,100.00
2022-09-27T05:02:49.671Z,100.00
2022-09-27T05:05:16.524Z,100.00
2022-09-27T05:07:43.053Z,100.00
2022-09-27T05:10:09.598Z,100.00
2022-09-27T05:12:36.148Z,100.00
2022-09-27T05:15:03.279Z,100.00
2022-09-27T05:17:29.809Z,100.00
2022-09-27T05:19:56.258Z,100.00
2022-09-27T05:22:22.833Z,100.00
2022-09-27T05:24:49.316Z,100.00
2022-09-27T05:27:20.671Z,100.00
2022-09-27T05:29:54.972Z,100.00
2022-09-27T05:32:22.763Z,100.00
2022-09-27T05:34:49.302Z,100.00
2022-09-27T05:37:15.917Z,100.00
2022-09-27T05:39:42.511Z,100.00
2022-09-27T05:42:10.332Z,100.00
2022-09-27T05:44:37.353Z,100.00
2022-09-27T05:47:04.409Z,100.00
2022-09-27T05:49:31.379Z,100.00
2022-09-27T05:51:57.836Z,100.00
2022-09-27T05:54:24.317Z,100.00
2022-09-27T05:56:53.999Z,100.00
2022-09-27T05:59:20.512Z,100.00
2022-09-27T06:01:47.385Z,100.00
2022-09-27T06:04:13.952Z,100.00
2022-09-27T06:06:40.502Z,100.00
2022-09-27T06:09:09.877Z,100.00
2022-09-27T06:11:36.332Z,100.00
2022-09-27T06:14:02.802Z,100.00
2022-09-27T06:16:29.278Z,100.00
2022-09-27T06:18:55.800Z,100.00
2022-09-27T06:21:22.735Z,100.00
2022-09-27T06:23:54.175Z,100.00
2022-09-27T06:26:23.287Z,100.00
2022-09-27T06:28:50.587Z,100.00
2022-09-27T06:31:17.086Z,100.00
2022-09-27T06:33:44.701Z,100.00
2022-09-27T06:36:11.318Z,100.00
2022-09-27T06:38:38.454Z,100.00
2022-09-27T06:41:06.578Z,100.00
2022-09-27T06:43:34.182Z,100.00
2022-09-27T06:46:05.809Z,100.00
2022-09-27T06:48:33.539Z,100.00
2022-09-27T06:51:00.206Z,100.00
2022-09-27T06:53:26.796Z,100.00
2022-09-27T06:55:53.299Z,100.00
2022-09-27T06:58:38.283Z,100.00
2022-09-27T07:01:04.832Z,100.00
2022-09-27T07:03:40.151Z,100.00
2022-09-27T07:06:12.117Z,100.00
2022-09-27T07:08:38.713Z,100.00
2022-09-27T07:11:06.005Z,100.00
2022-09-27T07:13:34.439Z,100.00
2022-09-27T07:16:01.714Z,100.00
2022-09-27T07:18:29.778Z,100.00
2022-09-27T07:21:00.128Z,100.00
2022-09-27T07:23:26.952Z,100.00
2022-09-27T07:25:53.456Z,100.00
2022-09-27T07:28:21.980Z,100.00
2022-09-27T07:30:48.835Z,100.00
2022-09-27T07:33:15.342Z,100.00
2022-09-27T07:35:43.036Z,100.00
2022-09-27T07:38:12.275Z,100.00
2022-09-27T07:40:39.306Z,100.00
2022-09-27T07:43:05.925Z,100.00
2022-09-27T07:45:32.448Z,100.00
2022-09-27T07:47:58.891Z,100.00
2022-09-27T07:50:25.376Z,100.00
2022-09-27T07:52:51.853Z,100.00
2022-09-27T07:55:19.447Z,100.00
2022-09-27T07:57:46.105Z,100.00
2022-09-27T08:00:15.119Z,100.00
2022-09-27T08:02:44.382Z,100.00
2022-09-27T08:05:11.731Z,100.00
2022-09-27T08:07:39.560Z,100.00
2022-09-27T08:10:07.238Z,100.00
2022-09-27T08:12:33.716Z,100.00
2022-09-27T08:15:01.570Z,100.00
2022-09-27T08:17:29.739Z,100.00
2022-09-27T08:19:56.588Z,100.00
2022-09-27T08:22:23.211Z,100.00
2022-09-27T08:24:49.911Z,100.00
2022-09-27T08:27:16.890Z,100.00
2022-09-27T08:29:43.324Z,100.00
2022-09-27T08:32:10.355Z,100.00
2022-09-27T08:34:36.979Z,100.00
2022-09-27T08:37:04.021Z,100.00
2022-09-27T08:39:31.403Z,100.00
2022-09-27T08:42:14.959Z,100.00
2022-09-27T08:44:49.775Z,100.00
2022-09-27T08:47:27.372Z,100.00
2022-09-27T08:49:57.409Z,100.00
2022-09-27T08:52:27.818Z,100.00
2022-09-27T08:54:55.680Z,100.00
2022-09-27T08:57:24.079Z,100.00
2022-09-27T08:59:58.876Z,100.00
2022-09-27T09:02:26.440Z,100.00
2022-09-27T09:04:57.833Z,100.00
2022-09-27T09:07:33.305Z,100.00
2022-09-27T09:10:02.593Z,100.00
2022-09-27T09:12:47.277Z,100.00
2022-09-27T09:15:13.764Z,100.00
2022-09-27T09:17:46.142Z,100.00
2022-09-27T09:20:16.995Z,100.00
2022-09-27T09:22:55.238Z,97.89
2022-09-27T09:25:40.256Z,98.49
2022-09-27T09:28:25.369Z,99.32
2022-09-27T09:31:10.567Z,95.89
2022-09-27T09:33:49.339Z,95.79
2022-09-27T09:36:27.752Z,93.78
2022-09-27T09:38:57.220Z,96.06
2022-09-27T09:41:47.431Z,91.92
2022-09-27T09:44:20.772Z,88.33
2022-09-27T09:46:49.918Z,88.19
2022-09-27T09:49:17.485Z,87.00
2022-09-27T09:51:50.380Z,87.59
2022-09-27T09:54:19.653Z,83.43
2022-09-27T09:56:49.022Z,84.59
2022-09-27T09:59:19.362Z,87.20
2022-09-27T10:01:48.393Z,89.72
2022-09-27T10:04:26.873Z,87.22
2022-09-27T10:06:55.218Z,85.99
2022-09-27T10:09:24.237Z,82.44
2022-09-27T10:11:50.736Z,81.28
2022-09-27T10:14:18.671Z,81.43
2022-09-27T10:16:48.748Z,79.46
2022-09-27T10:19:21.126Z,79.92
2022-09-27T10:21:49.378Z,82.15
2022-09-27T10:24:18.739Z,77.22
2022-09-27T10:26:47.296Z,79.37
2022-09-27T10:29:16.996Z,82.03
2022-09-27T10:31:47.845Z,84.02
2022-09-27T10:34:25.622Z,79.41
2022-09-27T10:37:02.388Z,75.20
2022-09-27T10:39:28.901Z,71.90
2022-09-27T10:41:55.417Z,71.63
2022-09-27T10:44:25.415Z,76.47
2022-09-27T10:46:53.561Z,78.03
2022-09-27T10:49:19.990Z,71.71
2022-09-27T10:51:49.884Z,75.75
2022-09-27T10:54:39.342Z,73.45
2022-09-27T10:57:14.921Z,71.98
2022-09-27T10:59:42.849Z,73.57
2022-09-27T11:02:24.299Z,78.30
2022-09-27T11:05:14.677Z,80.42
2022-09-27T11:07:50.239Z,84.78
2022-09-27T11:10:23.574Z,85.85
2022-09-27T11:13:05.928Z,88.25
2022-09-27T11:15:35.917Z,91.07
2022-09-27T11:18:10.213Z,94.10
2022-09-27T11:20:44.036Z,96.34
2022-09-27T11:23:23.528Z,97.83
2022-09-27T11:25:52.947Z,99.81
2022-09-27T11:28:45.305Z,99.53
2022-09-27T11:31:47.489Z,100.00
2022-09-27T11:34:22.601Z,100.00
2022-09-27T11:36:53.708Z,100.00
2022-09-27T11:39:29.407Z,100.00
2022-09-27T11:42:02.784Z,100.00
2022-09-27T11:44:47.590Z,97.11
2022-09-27T11:47:18.314Z,93.61
2022-09-27T11:49:59.993Z,93.64
2022-09-27T11:52:38.471Z,93.09
2022-09-27T11:55:15.536Z,92.32
2022-09-27T11:58:00.938Z,94.20
2022-09-27T12:00:33.279Z,95.21
2022-09-27T12:03:17.902Z,96.23
2022-09-27T12:06:02.502Z,95.67
2022-09-27T12:08:32.938Z,99.31
2022-09-27T12:11:13.084Z,99.06
2022-09-27T12:14:00.015Z,99.02
2022-09-27T12:16:27.027Z,100.00
2022-09-27T12:18:54.520Z,100.00
2022-09-27T12:21:22.373Z,100.00
2022-09-27T12:23:57.891Z,100.00
2022-09-27T12:26:26.651Z,100.00
2022-09-27T12:28:58.339Z,100.00
2022-09-27T12:31:30.653Z,100.00
2022-09-27T12:34:09.625Z,100.00
2022-09-27T12:36:44.365Z,100.00
2022-09-27T12:39:17.727Z,100.00
2022-09-27T12:42:05.698Z,100.00
2022-09-27T12:44:37.184Z,100.00
2022-09-27T12:47:08.303Z,100.00
2022-09-27T12:49:34.736Z,100.00
2022-09-27T12:52:08.216Z,100.00
2022-09-27T12:54:37.707Z,100.00
2022-09-27T12:57:04.367Z,100.00
2022-09-27T12:59:40.719Z,100.00
2022-09-27T13:02:16.392Z,100.00
2022-09-27T13:05:12.441Z,100.00
2022-09-27T13:07:52.957Z,100.00
2022-09-27T13:10:31.391Z,100.00
2022-09-27T13:12:58.685Z,100.00
2022-09-27T13:15:31.236Z,100.00
2022-09-27T13:17:59.705Z,100.00
2022-09-27T13:20:37.752Z,100.00
2022-09-27T13:23:16.130Z,100.00
2022-09-27T13:25:55.586Z,100.00
2022-09-27T13:28:28.435Z,100.00
2022-09-27T13:31:10.059Z,100.00
2022-09-27T13:33:50.350Z,100.00
2022-09-27T13:36:16.763Z,100.00
2022-09-27T13:39:01.886Z,100.00
2022-09-27T13:41:33.472Z,100.00
2022-09-27T13:44:21.373Z,100.00
2022-09-27T13:46:53.453Z,100.00
2022-09-27T13:49:29.213Z,100.00
2022-09-27T13:52:00.135Z,100.00
2022-09-27T13:54:42.100Z,100.00
2022-09-27T13:57:27.022Z,100.00
2022-09-27T13:59:55.804Z,100.00
2022-09-27T14:02:37.263Z,100.00
2022-09-27T14:05:04.812Z,100.00
2022-09-27T14:07:37.025Z,100.00
2022-09-27T14:10:03.864Z,100.00
2022-09-27T14:12:35.858Z,100.00
2022-09-27T14:15:02.779Z,100.00
2022-09-27T14:17:31.356Z,100.00
2022-09-27T14:19:57.857Z,100.00
2022-09-27T14:22:25.064Z,100.00
2022-09-27T14:24:52.468Z,100.00
2022-09-27T14:27:23.057Z,100.00
2022-09-27T14:30:08.581Z,100.00
2022-09-27T14:32:46.988Z,100.00
2022-09-27T14:35:32.264Z,100.00
2022-09-27T14:38:20.686Z,100.00
2022-09-27T14:40:53.872Z,100.00
2022-09-27T14:43:21.578Z,100.00
2022-09-27T14:45:52.244Z,100.00
2022-09-27T14:48:20.480Z,100.00
2022-09-27T14:50:54.029Z,100.00
2022-09-27T14:53:25.439Z,100.00
2022-09-27T14:55:54.440Z,100.00
2022-09-27T14:58:45.595Z,100.00
2022-09-27T15:01:15.266Z,100.00
2022-09-27T15:03:44.590Z,100.00
2022-09-27T15:06:11.742Z,100.00
2022-09-27T15:08:38.764Z,100.00
2022-09-27T15:11:07.551Z,100.00
2022-09-27T15:13:34.762Z,100.00
2022-09-27T15:16:01.604Z,100.00
2022-09-27T15:18:31.476Z,100.00
2022-09-27T15:20:58.302Z,100.00
2022-09-27T15:23:29.089Z,100.00
2022-09-27T15:26:14.047Z,100.00
2022-09-27T15:28:45.652Z,100.00
2022-09-27T15:31:14.278Z,100.00
2022-09-27T15:33:41.427Z,100.00
2022-09-27T15:36:08.983Z,96.52
2022-09-27T15:38:48.212Z,93.33
2022-09-27T15:41:26.262Z,92.58
2022-09-27T15:43:53.042Z,98.86
2022-09-27T15:46:22.485Z,99.17
2022-09-27T15:49:07.854Z,100.00
2022-09-27T15:51:41.338Z,99.02
2022-09-27T15:54:07.777Z,100.00
2022-09-27T15:56:35.191Z,100.00
2022-09-27T15:59:02.008Z,99.99
2022-09-27T16:01:29.331Z,100.00
2022-09-27T16:03:58.186Z,100.00
2022-09-27T16:06:26.044Z,100.00
2022-09-27T16:08:52.679Z,100.00
2022-09-27T16:11:22.354Z,100.00
2022-09-27T16:13:50.546Z,100.00
2022-09-27T16:16:19.451Z,100.00
2022-09-27T16:18:46.193Z,100.00
2022-09-27T16:21:12.742Z,100.00
2022-09-27T16:23:39.264Z,100.00
2022-09-27T16:26:05.811Z,100.00
2022-09-27T16:28:32.977Z,100.00
2022-09-27T16:31:04.009Z,100.00
2022-09-27T16:33:32.739Z,100.00
2022-09-27T16:36:03.590Z,100.00
2022-09-27T16:38:30.355Z,100.00
2022-09-27T16:41:00.747Z,100.00
2022-09-27T16:43:27.833Z,100.00
2022-09-27T16:45:54.892Z,100.00
2022-09-27T16:48:21.342Z,100.00
2022-09-27T16:51:06.618Z,100.00
2022-09-27T16:53:33.781Z,100.00
2022-09-27T16:56:00.416Z,100.00
2022-09-27T16:58:29.086Z,100.00
2022-09-27T17:00:58.661Z,100.00
2022-09-27T17:03:25.291Z,100.00
2022-09-27T17:05:51.839Z,100.00
2022-09-27T17:08:18.267Z,100.00
2022-09-27T17:10:45.622Z,100.00
2022-09-27T17:13:12.056Z,100.00
2022-09-27T17:15:38.895Z,100.00
2022-09-27T17:18:05.449Z,100.00
2022-09-27T17:20:31.884Z,100.00
2022-09-27T17:22:59.034Z,100.00
2022-09-27T17:25:25.530Z,100.00
2022-09-27T17:27:51.963Z,100.00
2022-09-27T17:30:19.608Z,100.00
2022-09-27T17:32:46.058Z,100.00
2022-09-27T17:35:12.519Z,100.00
2022-09-27T17:37:38.985Z,100.00
2022-09-27T17:40:05.781Z,100.00
2022-09-27T17:42:33.929Z,100.00
2022-09-27T17:45:00.439Z,100.00
2022-09-27T17:47:46.043Z,100.00
2022-09-27T17:50:24.622Z,100.00
2022-09-27T17:52:54.500Z,100.00
2022-09-27T17:55:23.857Z,100.00
2022-09-27T17:57:56.589Z,100.00
2022-09-27T18:00:23.053Z,100.00
2022-09-27T18:02:52.359Z,100.00
2022-09-27T18:05:21.384Z,100.00
2022-09-27T18:07:47.975Z,100.00
2022-09-27T18:10:14.447Z,100.00
2022-09-27T18:12:43.157Z,100.00
2022-09-27T18:15:09.557Z,100.00
2022-09-27T18:17:37.386Z,100.00
2022-09-27T18:20:04.592Z,100.00
2022-09-27T18:22:31.282Z,100.00
2022-09-27T18:24:57.969Z,100.00
2022-09-27T18:27:24.553Z,100.00
2022-09-27T18:29:51.031Z,100.00
2022-09-27T18:32:17.486Z,100.00
2022-09-27T18:34:43.996Z,100.00
2022-09-27T18:37:10.459Z,100.00
2022-09-27T18:39:37.013Z,100.00
2022-09-27T18:42:03.735Z,100.00
2022-09-27T18:44:30.201Z,100.00
2022-09-27T18:46:58.244Z,100.00
2022-09-27T18:49:27.036Z,100.00
2022-09-27T18:51:56.032Z,100.00
2022-09-27T18:54:22.658Z,100.00
2022-09-27T18:56:50.255Z,100.00
2022-09-27T18:59:17.687Z,100.00
2022-09-27T19:01:47.559Z,100.00
2022-09-27T19:04:17.533Z,100.00
2022-09-27T19:06:45.855Z,100.00
2022-09-27T19:09:12.422Z,100.00
2022-09-27T19:11:39.181Z,100.00
2022-09-27T19:14:05.849Z,100.00
2022-09-27T19:16:32.454Z,100.00
2022-09-27T19:18:59.401Z,100.00
2022-09-27T19:21:27.319Z,100.00
2022-09-27T19:23:53.919Z,100.00
2022-09-27T19:26:21.619Z,100.00
2022-09-27T19:28:48.600Z,100.00
2022-09-27T19:31:16.417Z,100.00
2022-09-27T19:33:43.253Z,100.00
2022-09-27T19:36:11.018Z,100.00
2022-09-27T19:38:38.188Z,100.00
2022-09-27T19:41:05.953Z,100.00
2022-09-27T19:43:32.567Z,100.00
2022-09-27T19:46:09.239Z,100.00
2022-09-27T19:48:36.932Z,100.00
2022-09-27T19:51:03.551Z,100.00
2022-09-27T19:53:32.275Z,100.00
2022-09-27T19:56:02.477Z,100.00
2022-09-27T19:58:29.808Z,100.00
2022-09-27T20:00:59.620Z,100.00
2022-09-27T20:03:26.099Z,100.00
2022-09-27T20:05:55.890Z,100.00
2022-09-27T20:08:22.777Z,100.00
2022-09-27T20:11:05.166Z,100.00
2022-09-27T20:13:33.229Z,100.00
2022-09-27T20:16:02.765Z,100.00
2022-09-27T20:18:29.351Z,100.00
2022-09-27T20:20:58.760Z,100.00
2022-09-27T20:23:25.502Z,100.00
2022-09-27T20:25:52.150Z,100.00
2022-09-27T20:28:18.673Z,100.00
2022-09-27T20:30:55.221Z,100.00
2022-09-27T20:33:40.172Z,100.00
2022-09-27T20:36:07.045Z,100.00
2022-09-27T20:38:33.502Z,100.00
2022-09-27T20:41:00.090Z,100.00
2022-09-27T20:43:27.216Z,100.00
2022-09-27T20:45:59.523Z,100.00
2022-09-27T20:48:26.002Z,100.00
2022-09-27T20:50:56.885Z,100.00
2022-09-27T20:53:26.420Z,100.00
2022-09-27T20:55:56.251Z,100.00
2022-09-27T20:58:23.063Z,100.00
2022-09-27T21:00:49.745Z,100.00
2022-09-27T21:03:20.853Z,100.00
2022-09-27T21:05:55.132Z,100.00
2022-09-27T21:08:21.829Z,100.00
2022-09-27T21:10:52.613Z,100.00
2022-09-27T21:13:19.819Z,100.00
2022-09-27T21:15:46.539Z,100.00
2022-09-27T21:18:13.127Z,100.00
2022-09-27T21:20:39.670Z,100.00
2022-09-27T21:23:06.314Z,100.00
2022-09-27T21:25:32.851Z,100.00
2022-09-27T21:27:59.331Z,100.00
2022-09-27T21:30:25.836Z,100.00
2022-09-27T21:32:55.408Z,100.00
2022-09-27T21:35:22.528Z,100.00
2022-09-27T21:37:49.495Z,100.00
2022-09-27T21:40:16.624Z,100.00
2022-09-27T21:42:43.159Z,100.00
2022-09-27T21:45:09.858Z,100.00
2022-09-27T21:47:36.288Z,100.00
2022-09-27T21:50:02.719Z,100.00
2022-09-27T21:52:29.163Z,100.00
2022-09-27T21:54:55.637Z,100.00
2022-09-27T21:57:22.205Z,100.00
2022-09-27T21:59:48.673Z,100.00
2022-09-27T22:02:15.121Z,100.00
2022-09-27T22:04:41.827Z,100.00
2022-09-27T22:07:08.292Z,100.00
2022-09-27T22:09:34.857Z,100.00
2022-09-27T22:12:01.685Z,100.00
2022-09-27T22:14:28.156Z,100.00
2022-09-27T22:16:54.615Z,100.00
2022-09-27T22:19:21.203Z,100.00
2022-09-27T22:21:47.736Z,100.00
2022-09-27T22:24:15.410Z,100.00
2022-09-27T22:26:45.321Z,100.00
2022-09-27T22:29:11.780Z,100.00
2022-09-27T22:31:38.311Z,100.00
2022-09-27T22:34:06.263Z,100.00
2022-09-27T22:36:33.401Z,100.00
2022-09-27T22:39:00.285Z,100.00
2022-09-27T22:41:27.283Z,100.00
2022-09-27T22:43:53.830Z,100.00
2022-09-27T22:46:20.527Z,100.00
2022-09-27T22:48:47.216Z,100.00
2022-09-27T22:51:13.666Z,100.00
2022-09-27T22:53:40.376Z,100.00
2022-09-27T22:56:08.572Z,100.00
2022-09-27T22:58:36.012Z,100.00
2022-09-27T23:01:29.688Z,100.00
2022-09-27T23:03:57.236Z,100.00
2022-09-27T23:06:23.783Z,100.00
2022-09-27T23:08:51.446Z,100.00
2022-09-27T23:11:19.534Z,100.00
2022-09-27T23:13:46.572Z,100.00
2022-09-27T23:16:14.536Z,100.00
2022-09-27T23:18:42.250Z,100.00
2022-09-27T23:21:10.214Z,100.00
2022-09-27T23:23:38.150Z,100.00
2022-09-27T23:26:05.899Z,100.00
2022-09-27T23:28:33.062Z,100.00
2022-09-27T23:31:08.294Z,100.00
2022-09-27T23:33:38.906Z,100.00
2022-09-27T23:36:06.189Z,100.00
2022-09-27T23:38:32.856Z,100.00
2022-09-27T23:41:00.299Z,100.00
2022-09-27T23:43:27.221Z,100.00
2022-09-27T23:45:57.469Z,100.00
2022-09-27T23:48:24.686Z,100.00
2022-09-27T23:50:52.110Z,100.00
2022-09-27T23:53:19.235Z,100.00
2022-09-27T23:55:57.800Z,100.00
2022-09-27T23:58:24.919Z,100.00
